Terminal Aerodrome Forecast
Issued by NWS

Home | Current Version | Previous Version | Text Only | Print | Product List | Glossary On
Versions: 1 2 3 4 5 6 7 8 9 10 11 12 13 14 15 16 17 18 19 20 21 22 23 24 25 26 27 28
000
FTUS41 KPHI 250520
TAFMIV
TAF
KMIV 250520Z 2506/2606 09008KT 6SM -RA BR OVC020
      TEMPO 2506/2508 5SM RA BR
     FM250800 09009KT 4SM RA BR OVC007
     FM251200 10007KT 2SM -RA BR OVC005
     FM251800 23009KT P6SM OVC005 PROB30 2518/2522 4SM -RA
     FM252200 26006KT P6SM OVC040
     FM260000 29005KT P6SM OVC090=

USA.gov is the U.S. government's official web portal to all federal, state and local government web resources and services.